Terminal Aerodrome Forecast
Issued by NWS

Home | Current Version | Previous Version | Text Only | Print | Product List | Glossary On
Versions: 1 2 3 4 5 6 7 8 9 10 11 12 13 14 15
000
FTAK31 PANC 230523
TAFADL
TAF
PADL 230523Z 2306/2406 03020G30KT P6SM SKC
     FM231000 36026G35KT P6SM SKC WS020/08030KT
     FM231600 36022G30KT 2SM -SN BKN025 OVC040 WS020/08040KT
     FM231900 01022G30KT 2SM -SN OVC015 WS020/08040KT
     FM240100 01015G22KT 2SM -SN OVC015 WS020/08030KT=

USA.gov is the U.S. government's official web portal to all federal, state and local government web resources and services.